createdAt,value
2022-10-11T00:12:58.902Z,88.3
2022-10-11T00:27:30.628Z,87.6
2022-10-11T00:42:02.920Z,88.6
2022-10-11T00:56:35.670Z,93.7
2022-10-11T01:11:07.222Z,96.2
2022-10-11T01:25:39.796Z,89.5
2022-10-11T01:40:12.321Z,92.6
2022-10-11T01:55:10.076Z,92.1
2022-10-11T02:09:29.782Z,91.1
2022-10-11T02:24:01.723Z,92.9
2022-10-11T02:38:34.592Z,94.4
2022-10-11T02:53:07.016Z,89.8
2022-10-11T03:07:39.121Z,90.3
2022-10-11T03:22:10.010Z,96.6
2022-10-11T03:36:43.776Z,95.5
2022-10-11T03:51:16.423Z,97.7
2022-10-11T04:05:49.503Z,94.7
2022-10-11T04:20:20.162Z,91
2022-10-11T04:34:53.116Z,96.6
2022-10-11T04:49:25.345Z,98.3
2022-10-11T05:03:58.132Z,95.3
2022-10-11T05:18:29.899Z,96.5
2022-10-11T05:33:01.132Z,100
2022-10-11T05:47:31.440Z,100
2022-10-11T06:02:03.433Z,99.6
2022-10-11T06:16:35.457Z,93.7
2022-10-11T06:31:09.994Z,98.7
2022-10-11T06:45:42.700Z,94.9
2022-10-11T07:00:16.434Z,94.6
2022-10-11T07:14:50.444Z,100
2022-10-11T07:29:22.937Z,100
2022-10-11T07:43:57.712Z,94.8
2022-10-11T07:58:31.156Z,97.8
2022-10-11T08:13:14.455Z,79.8
2022-10-11T08:27:49.640Z,81.3
2022-10-11T08:42:23.206Z,88.5
2022-10-11T08:56:54.372Z,90
2022-10-11T09:11:28.123Z,81.1
2022-10-11T09:26:04.539Z,75.9
2022-10-11T09:40:41.689Z,75.4
2022-10-11T09:55:10.978Z,79
2022-10-11T10:09:44.112Z,75.2
2022-10-11T10:24:17.456Z,69.6
2022-10-11T10:38:52.547Z,71
2022-10-11T10:53:24.153Z,65.3
2022-10-11T11:07:55.035Z,63.4
2022-10-11T11:22:32.909Z,62.5
2022-10-11T11:37:01.585Z,62.6
2022-10-11T11:51:36.979Z,62
2022-10-11T12:06:08.137Z,61.2
2022-10-11T12:20:40.940Z,58.8
2022-10-11T12:35:13.104Z,57.5
2022-10-11T12:49:47.291Z,55.8
2022-10-11T13:04:21.354Z,55.1
2022-10-11T13:18:53.779Z,58.3
2022-10-11T13:48:04.903Z,54.6
2022-10-11T14:02:37.318Z,53.7
2022-10-11T14:17:11.350Z,52.6
2022-10-11T14:31:43.505Z,55.7
2022-10-11T14:46:16.980Z,54
2022-10-11T15:00:49.139Z,52.1
2022-10-11T15:15:22.968Z,52.9
2022-10-11T15:29:55.572Z,56.5
2022-10-11T15:44:28.300Z,57.6
2022-10-11T15:59:00.538Z,59.9
2022-10-11T16:13:32.154Z,60.5
2022-10-11T16:28:02.956Z,63
2022-10-11T16:42:35.561Z,65.5
2022-10-11T16:57:06.368Z,66.1
2022-10-11T17:11:39.575Z,69.3
2022-10-11T17:26:12.548Z,71.1
2022-10-11T17:40:49.568Z,73.1
2022-10-11T17:55:19.583Z,72.3
2022-10-11T18:09:52.709Z,74
2022-10-11T18:24:24.889Z,75.9
2022-10-11T18:38:57.399Z,77.5
2022-10-11T18:53:28.703Z,79.4
2022-10-11T19:08:01.337Z,81.8
2022-10-11T19:22:23.370Z,82.2
2022-10-11T19:36:54.777Z,81.5
2022-10-11T19:51:26.474Z,86
2022-10-11T20:05:59.949Z,83.6
2022-10-11T20:20:31.988Z,83.2
2022-10-11T20:35:04.863Z,83
2022-10-11T20:49:36.586Z,85.3
2022-10-11T21:04:08.293Z,89.1
2022-10-11T21:18:39.992Z,91
2022-10-11T21:33:13.402Z,88.7
2022-10-11T21:47:51.080Z,87.3
2022-10-11T22:02:20.921Z,87
2022-10-11T22:16:53.656Z,91.9
2022-10-11T22:31:25.498Z,96.6
2022-10-11T22:45:57.445Z,95.1
2022-10-11T23:00:28.991Z,96.4
2022-10-11T23:15:01.728Z,94.1
2022-10-11T23:29:33.521Z,93.4
2022-10-11T23:44:05.962Z,95.8
2022-10-11T23:58:38.471Z,94.9
